1924 NOT_NAMED (1924217N24142)


IBTrACS version v04r00. Visit IBTrACS website for data access.
Please direct all questions to the IBTrACS Q and A forum

Storm track - Intensity - Wind Radii - Intensity Data - Source Data - All data

Summary Information

Storm ID 1924217N24142
Start Aug 3 22Z
End Aug 5 22Z
ATCF IDs
Track status Best track data.

Storm track plot

Map of storm track

Intensity plots

No Intensity information for this storm


Radial wind information

No radial wind information for this storm


Position and Intensity Table

BASIN ISO_TIME_________ NATURE LAT LON
degrees north degrees east
WP 1924-08-03 22:00:00 NR 24.20 142.20
WP 1924-08-04 00:00:00 NR 24.42 142.13
WP 03:00:00 NR 24.76 142.03
WP 06:00:00 NR 25.11 141.93
WP 09:00:00 NR 25.47 141.83
WP 10:00:00 NR 25.60 141.80
WP 12:00:00 NR 25.86 141.74
WP 15:00:00 NR 26.26 141.63
WP 18:00:00 NR 26.67 141.47
WP 21:00:00 NR 27.07 141.21
WP 22:00:00 NR 27.20 141.10
WP 1924-08-05 00:00:00 NR 27.45 140.82
WP 03:00:00 NR 27.81 140.32
WP 06:00:00 NR 28.16 139.73
WP 09:00:00 NR 28.49 139.11
WP 10:00:00 NR 28.60 138.90
WP 12:00:00 NR 28.81 138.49
WP 15:00:00 NR 29.12 137.88
WP 18:00:00 NR 29.41 137.29
WP 21:00:00 NR 29.70 136.70
WP 22:00:00 NR 29.80 136.50

Source Information

Agency Information
USA
TOKYO
CMA
HKO
NEWDELHI
REUNION
BOM
NADI
WELLINGTON
DS824
TD9636 cons_worldwide_trop_cyclone_18710101-19891231-003:Line=7189
TD9635
NEUMANN
MLC

All available IBTrACS Data

SEASON BASIN SUBBASIN ISO_TIME_________ NATURE LAT LON DIST2LAND LANDFALL IFLAG USA SSHS TD9636 LAT TD9636 LON TD9636 STAGE STORM SPEED STORM DIR
Year degrees north degrees east km km 1 degrees north degrees east kts degrees
1924 WP MM 1924-08-03 22:00:00 NR 24.20 142.20 1200 1175 __________O___ -1 24.20 142.20 7 7 342
1924 WP MM 1924-08-04 00:00:00 NR 24.42 142.13 1175 1132 __________P___ -1 24.42 142.13 7 7 344
1924 WP MM 03:00:00 NR 24.76 142.03 1132 1098 __________P___ -1 24.76 142.03 7 7 345
1924 WP MM 06:00:00 NR 25.11 141.93 1098 1054 __________P___ -1 25.11 141.93 7 7 346
1924 WP MM 09:00:00 NR 25.47 141.83 1054 1044 __________P___ -1 25.47 141.83 7 8 347
1924 WP MM 10:00:00 NR 25.60 141.80 1044 1009 __________O___ -1 25.60 141.80 7 8 349
1924 WP MM 12:00:00 NR 25.86 141.74 1009 964 __________P___ -1 25.86 141.74 7 8 347
1924 WP MM 15:00:00 NR 26.26 141.63 964 918 __________P___ -1 26.26 141.63 7 9 343
1924 WP MM 18:00:00 NR 26.67 141.47 918 867 __________P___ -1 26.67 141.47 7 9 335
1924 WP MM 21:00:00 NR 27.07 141.21 867 854 __________P___ -1 27.07 141.21 7 9 328
1924 WP MM 22:00:00 NR 27.20 141.10 854 813 __________O___ -1 27.20 141.10 7 10 318
1924 WP MM 1924-08-05 00:00:00 NR 27.45 140.82 813 758 __________P___ -1 27.45 140.82 7 11 311
1924 WP MM 03:00:00 NR 27.81 140.32 758 689 __________P___ -1 27.81 140.32 7 12 306
1924 WP MM 06:00:00 NR 28.16 139.73 689 630 __________P___ -1 28.16 139.73 7 13 303
1924 WP MM 09:00:00 NR 28.49 139.11 630 611 __________P___ -1 28.49 139.11 7 13 301
1924 WP MM 10:00:00 NR 28.60 138.90 611 573 __________O___ -1 28.60 138.90 7 13 300
1924 WP MM 12:00:00 NR 28.81 138.49 573 519 __________P___ -1 28.81 138.49 7 12 300
1924 WP MM 15:00:00 NR 29.12 137.88 519 468 __________P___ -1 29.12 137.88 7 12 300
1924 WP MM 18:00:00 NR 29.41 137.29 468 421 __________P___ -1 29.41 137.29 7 12 300
1924 WP MM 21:00:00 NR 29.70 136.70 421 406 __________P___ -1 29.70 136.70 7 12 299
1924 WP MM 22:00:00 NR 29.80 136.50 406 __________O___ -1 29.80 136.50 7 12 299